sensor_id;sensor_type;location;lat;lon;timestamp;pressure;altitude;pressure_sealevel;temperature;humidity
32083;BME280;18597;48.328;7.932;2023-01-19T00:00:05;98642.69;;;-3.94;100.00
32083;BME280;18597;48.328;7.932;2023-01-19T00:02:32;98639.56;;;-3.82;100.00
32083;BME280;18597;48.328;7.932;2023-01-19T00:04:58;98647.25;;;-3.79;100.00
32083;BME280;18597;48.328;7.932;2023-01-19T00:07:24;98644.78;;;-4.02;100.00
32083;BME280;18597;48.328;7.932;2023-01-19T00:09:49;98644.47;;;-4.15;100.00
32083;BME280;18597;48.328;7.932;2023-01-19T00:12:15;98649.47;;;-4.10;100.00
32083;BME280;18597;48.328;7.932;2023-01-19T00:14:41;98647.28;;;-3.99;100.00
32083;BME280;18597;48.328;7.932;2023-01-19T00:17:07;98644.34;;;-4.12;100.00
32083;BME280;18597;48.328;7.932;2023-01-19T00:19:33;98642.84;;;-3.97;100.00
32083;BME280;18597;48.328;7.932;2023-01-19T00:21:58;98640.38;;;-4.00;100.00
32083;BME280;18597;48.328;7.932;2023-01-19T00:24:24;98641.59;;;-3.88;100.00
32083;BME280;18597;48.328;7.932;2023-01-19T00:26:50;98644.38;;;-3.73;100.00
32083;BME280;18597;48.328;7.932;2023-01-19T00:29:16;98649.25;;;-3.84;100.00
32083;BME280;18597;48.328;7.932;2023-01-19T00:31:42;98645.44;;;-3.77;100.00
32083;BME280;18597;48.328;7.932;2023-01-19T00:34:07;98655.03;;;-3.98;100.00
32083;BME280;18597;48.328;7.932;2023-01-19T00:36:33;98651.44;;;-4.15;100.00
32083;BME280;18597;48.328;7.932;2023-01-19T00:38:59;98662.25;;;-4.25;100.00
32083;BME280;18597;48.328;7.932;2023-01-19T00:41:25;98666.00;;;-4.32;100.00
32083;BME280;18597;48.328;7.932;2023-01-19T00:44:11;98667.97;;;-4.37;100.00
32083;BME280;18597;48.328;7.932;2023-01-19T00:46:38;98666.84;;;-4.31;100.00
32083;BME280;18597;48.328;7.932;2023-01-19T00:49:04;98674.63;;;-4.30;100.00
32083;BME280;18597;48.328;7.932;2023-01-19T00:51:30;98671.13;;;-4.29;100.00
32083;BME280;18597;48.328;7.932;2023-01-19T00:53:57;98675.41;;;-4.28;100.00
32083;BME280;18597;48.328;7.932;2023-01-19T00:56:24;98674.00;;;-4.14;100.00
32083;BME280;18597;48.328;7.932;2023-01-19T00:58:50;98676.44;;;-4.32;100.00
32083;BME280;18597;48.328;7.932;2023-01-19T01:01:16;98673.47;;;-4.02;100.00
32083;BME280;18597;48.328;7.932;2023-01-19T01:03:41;98674.47;;;-4.05;100.00
32083;BME280;18597;48.328;7.932;2023-01-19T01:06:07;98676.72;;;-4.18;100.00
32083;BME280;18597;48.328;7.932;2023-01-19T01:08:34;98683.69;;;-4.18;100.00
32083;BME280;18597;48.328;7.932;2023-01-19T01:11:00;98685.16;;;-4.11;100.00
32083;BME280;18597;48.328;7.932;2023-01-19T01:13:27;98677.91;;;-4.04;100.00
32083;BME280;18597;48.328;7.932;2023-01-19T01:15:54;98681.78;;;-3.93;100.00
32083;BME280;18597;48.328;7.932;2023-01-19T01:18:21;98680.66;;;-3.87;100.00
32083;BME280;18597;48.328;7.932;2023-01-19T01:20:47;98683.47;;;-3.71;100.00
32083;BME280;18597;48.328;7.932;2023-01-19T01:23:13;98683.53;;;-3.52;100.00
32083;BME280;18597;48.328;7.932;2023-01-19T01:25:39;98686.41;;;-3.58;100.00
32083;BME280;18597;48.328;7.932;2023-01-19T01:28:08;98681.50;;;-3.66;100.00
32083;BME280;18597;48.328;7.932;2023-01-19T01:30:35;98679.75;;;-3.66;100.00
32083;BME280;18597;48.328;7.932;2023-01-19T01:33:05;98686.91;;;-3.71;100.00
32083;BME280;18597;48.328;7.932;2023-01-19T01:35:31;98688.34;;;-3.64;100.00
32083;BME280;18597;48.328;7.932;2023-01-19T01:37:59;98689.28;;;-3.44;100.00
32083;BME280;18597;48.328;7.932;2023-01-19T01:40:26;98694.50;;;-3.65;100.00
32083;BME280;18597;48.328;7.932;2023-01-19T01:42:53;98697.00;;;-3.61;100.00
32083;BME280;18597;48.328;7.932;2023-01-19T01:45:33;98701.69;;;-3.70;100.00
32083;BME280;18597;48.328;7.932;2023-01-19T01:48:22;98697.84;;;-3.61;100.00
32083;BME280;18597;48.328;7.932;2023-01-19T01:50:57;98689.75;;;-3.55;100.00
32083;BME280;18597;48.328;7.932;2023-01-19T01:53:56;98700.72;;;-3.47;100.00
32083;BME280;18597;48.328;7.932;2023-01-19T01:56:33;98699.78;;;-3.46;100.00
32083;BME280;18597;48.328;7.932;2023-01-19T01:59:05;98697.88;;;-3.42;100.00
32083;BME280;18597;48.328;7.932;2023-01-19T02:01:32;98698.84;;;-3.24;100.00
32083;BME280;18597;48.328;7.932;2023-01-19T02:04:18;98702.00;;;-3.37;100.00
32083;BME280;18597;48.328;7.932;2023-01-19T02:06:46;98704.00;;;-3.23;100.00
32083;BME280;18597;48.328;7.932;2023-01-19T02:09:35;98699.22;;;-3.33;100.00
32083;BME280;18597;48.328;7.932;2023-01-19T02:12:22;98692.34;;;-3.16;100.00
32083;BME280;18597;48.328;7.932;2023-01-19T02:15:18;98687.06;;;-3.14;100.00
32083;BME280;18597;48.328;7.932;2023-01-19T02:17:45;98688.06;;;-3.17;100.00
32083;BME280;18597;48.328;7.932;2023-01-19T02:20:12;98691.28;;;-3.12;100.00
32083;BME280;18597;48.328;7.932;2023-01-19T02:22:47;98687.06;;;-3.14;100.00
32083;BME280;18597;48.328;7.932;2023-01-19T02:25:15;98690.78;;;-3.20;100.00
32083;BME280;18597;48.328;7.932;2023-01-19T02:27:41;98683.88;;;-3.21;100.00
32083;BME280;18597;48.328;7.932;2023-01-19T02:30:08;98685.56;;;-3.20;100.00
32083;BME280;18597;48.328;7.932;2023-01-19T02:32:35;98686.56;;;-3.22;100.00
32083;BME280;18597;48.328;7.932;2023-01-19T02:35:01;98679.91;;;-3.11;100.00
32083;BME280;18597;48.328;7.932;2023-01-19T02:37:28;98674.16;;;-2.98;100.00
32083;BME280;18597;48.328;7.932;2023-01-19T02:40:00;98679.88;;;-2.90;100.00
32083;BME280;18597;48.328;7.932;2023-01-19T02:42:47;98676.22;;;-2.86;100.00
32083;BME280;18597;48.328;7.932;2023-01-19T02:45:19;98682.47;;;-2.90;100.00
32083;BME280;18597;48.328;7.932;2023-01-19T02:47:49;98685.72;;;-3.04;100.00
32083;BME280;18597;48.328;7.932;2023-01-19T02:53:41;98675.84;;;-3.16;100.00
32083;BME280;18597;48.328;7.932;2023-01-19T02:59:22;98676.25;;;-3.07;100.00
32083;BME280;18597;48.328;7.932;2023-01-19T03:05:11;98679.88;;;-3.09;100.00
32083;BME280;18597;48.328;7.932;2023-01-19T03:13:45;98688.50;;;-3.46;100.00
32083;BME280;18597;48.328;7.932;2023-01-19T03:16:29;98688.59;;;-3.49;100.00
32083;BME280;18597;48.328;7.932;2023-01-19T03:19:07;98683.44;;;-3.70;100.00
32083;BME280;18597;48.328;7.932;2023-01-19T03:21:36;98684.44;;;-3.74;100.00
32083;BME280;18597;48.328;7.932;2023-01-19T03:24:07;98690.31;;;-3.89;100.00
32083;BME280;18597;48.328;7.932;2023-01-19T03:26:41;98687.34;;;-4.00;100.00
32083;BME280;18597;48.328;7.932;2023-01-19T03:29:10;98683.22;;;-4.06;100.00
32083;BME280;18597;48.328;7.932;2023-01-19T03:31:38;98689.13;;;-4.02;100.00
32083;BME280;18597;48.328;7.932;2023-01-19T03:34:08;98692.06;;;-4.10;100.00
32083;BME280;18597;48.328;7.932;2023-01-19T03:36:49;98697.75;;;-4.00;100.00
32083;BME280;18597;48.328;7.932;2023-01-19T03:39:22;98693.25;;;-3.97;100.00
32083;BME280;18597;48.328;7.932;2023-01-19T03:41:53;98693.66;;;-3.65;100.00
32083;BME280;18597;48.328;7.932;2023-01-19T03:44:23;98693.03;;;-3.70;100.00
32083;BME280;18597;48.328;7.932;2023-01-19T03:46:51;98692.69;;;-3.63;100.00
32083;BME280;18597;48.328;7.932;2023-01-19T03:49:17;98690.78;;;-3.39;100.00
32083;BME280;18597;48.328;7.932;2023-01-19T03:51:43;98695.53;;;-3.48;100.00
32083;BME280;18597;48.328;7.932;2023-01-19T03:54:10;98689.81;;;-3.77;100.00
32083;BME280;18597;48.328;7.932;2023-01-19T03:56:36;98693.66;;;-3.65;100.00
32083;BME280;18597;48.328;7.932;2023-01-19T03:59:02;98698.16;;;-3.89;100.00
32083;BME280;18597;48.328;7.932;2023-01-19T04:01:30;98692.56;;;-4.00;100.00
32083;BME280;18597;48.328;7.932;2023-01-19T04:03:56;98700.84;;;-3.70;100.00
32083;BME280;18597;48.328;7.932;2023-01-19T04:06:22;98698.69;;;-3.81;100.00
32083;BME280;18597;48.328;7.932;2023-01-19T04:08:50;98702.00;;;-3.98;100.00
32083;BME280;18597;48.328;7.932;2023-01-19T04:11:16;98705.78;;;-4.05;100.00
32083;BME280;18597;48.328;7.932;2023-01-19T04:13:42;98697.44;;;-3.93;100.00
32083;BME280;18597;48.328;7.932;2023-01-19T04:16:09;98709.63;;;-3.93;100.00
32083;BME280;18597;48.328;7.932;2023-01-19T04:18:35;98712.31;;;-4.16;100.00
32083;BME280;18597;48.328;7.932;2023-01-19T04:21:05;98714.25;;;-4.00;100.00
32083;BME280;18597;48.328;7.932;2023-01-19T04:23:31;98712.22;;;-4.13;100.00
32083;BME280;18597;48.328;7.932;2023-01-19T04:26:04;98707.78;;;-4.11;100.00
32083;BME280;18597;48.328;7.932;2023-01-19T04:28:32;98711.84;;;-4.26;100.00
32083;BME280;18597;48.328;7.932;2023-01-19T04:30:59;98711.63;;;-4.42;100.00
32083;BME280;18597;48.328;7.932;2023-01-19T04:33:26;98711.63;;;-4.42;100.00
32083;BME280;18597;48.328;7.932;2023-01-19T04:35:52;98717.50;;;-4.15;100.00
32083;BME280;18597;48.328;7.932;2023-01-19T04:38:19;98720.75;;;-4.32;100.00
32083;BME280;18597;48.328;7.932;2023-01-19T04:40:59;98719.97;;;-4.56;100.00
32083;BME280;18597;48.328;7.932;2023-01-19T04:43:25;98724.56;;;-4.62;100.00
32083;BME280;18597;48.328;7.932;2023-01-19T04:45:51;98718.63;;;-4.66;100.00
32083;BME280;18597;48.328;7.932;2023-01-19T04:48:19;98710.41;;;-4.55;100.00
32083;BME280;18597;48.328;7.932;2023-01-19T04:50:45;98713.63;;;-4.49;100.00
32083;BME280;18597;48.328;7.932;2023-01-19T04:53:12;98716.44;;;-4.55;100.00
32083;BME280;18597;48.328;7.932;2023-01-19T04:55:38;98720.22;;;-4.62;100.00
32083;BME280;18597;48.328;7.932;2023-01-19T04:58:04;98727.63;;;-4.51;100.00
32083;BME280;18597;48.328;7.932;2023-01-19T05:00:30;98735.06;;;-4.64;100.00
32083;BME280;18597;48.328;7.932;2023-01-19T05:02:56;98738.66;;;-4.66;100.00
32083;BME280;18597;48.328;7.932;2023-01-19T05:05:21;98745.13;;;-4.55;100.00
32083;BME280;18597;48.328;7.932;2023-01-19T05:07:47;98738.41;;;-4.16;100.00
32083;BME280;18597;48.328;7.932;2023-01-19T05:10:13;98743.13;;;-4.04;100.00
32083;BME280;18597;48.328;7.932;2023-01-19T05:12:39;98742.66;;;-3.92;100.00
32083;BME280;18597;48.328;7.932;2023-01-19T05:15:07;98735.47;;;-3.87;100.00
32083;BME280;18597;48.328;7.932;2023-01-19T05:17:34;98738.88;;;-3.85;100.00
32083;BME280;18597;48.328;7.932;2023-01-19T05:20:00;98742.88;;;-3.76;100.00
32083;BME280;18597;48.328;7.932;2023-01-19T05:22:26;98749.88;;;-3.78;100.00
32083;BME280;18597;48.328;7.932;2023-01-19T05:24:52;98752.16;;;-3.91;100.00
32083;BME280;18597;48.328;7.932;2023-01-19T05:27:18;98746.94;;;-3.71;100.00
32083;BME280;18597;48.328;7.932;2023-01-19T05:29:44;98753.50;;;-3.60;100.00
32083;BME280;18597;48.328;7.932;2023-01-19T05:32:09;98747.19;;;-3.55;100.00
32083;BME280;18597;48.328;7.932;2023-01-19T05:34:35;98756.94;;;-3.80;100.00
32083;BME280;18597;48.328;7.932;2023-01-19T05:37:01;98757.56;;;-3.96;100.00
32083;BME280;18597;48.328;7.932;2023-01-19T05:39:27;98760.00;;;-4.13;100.00
32083;BME280;18597;48.328;7.932;2023-01-19T05:41:54;98758.41;;;-3.95;100.00
32083;BME280;18597;48.328;7.932;2023-01-19T05:44:20;98756.53;;;-3.92;100.00
32083;BME280;18597;48.328;7.932;2023-01-19T05:46:46;98756.84;;;-3.99;100.00
32083;BME280;18597;48.328;7.932;2023-01-19T05:49:12;98761.00;;;-4.15;100.00
32083;BME280;18597;48.328;7.932;2023-01-19T05:51:38;98755.34;;;-4.27;100.00
32083;BME280;18597;48.328;7.932;2023-01-19T05:54:06;98764.84;;;-4.26;100.00
32083;BME280;18597;48.328;7.932;2023-01-19T05:56:33;98756.00;;;-4.22;100.00
32083;BME280;18597;48.328;7.932;2023-01-19T05:59:00;98761.09;;;-4.40;100.00
32083;BME280;18597;48.328;7.932;2023-01-19T06:01:27;98760.47;;;-4.25;100.00
32083;BME280;18597;48.328;7.932;2023-01-19T06:03:53;98767.31;;;-4.01;100.00
32083;BME280;18597;48.328;7.932;2023-01-19T06:06:19;98771.44;;;-3.95;100.00
32083;BME280;18597;48.328;7.932;2023-01-19T06:08:45;98776.88;;;-4.00;100.00
32083;BME280;18597;48.328;7.932;2023-01-19T06:11:11;98776.50;;;-3.91;100.00
32083;BME280;18597;48.328;7.932;2023-01-19T06:13:37;98774.00;;;-3.51;100.00
32083;BME280;18597;48.328;7.932;2023-01-19T06:16:06;98780.00;;;-3.49;100.00
32083;BME280;18597;48.328;7.932;2023-01-19T06:18:32;98774.31;;;-3.18;100.00
32083;BME280;18597;48.328;7.932;2023-01-19T06:21:01;98777.13;;;-3.23;100.00
32083;BME280;18597;48.328;7.932;2023-01-19T06:23:29;98774.31;;;-3.18;100.00
32083;BME280;18597;48.328;7.932;2023-01-19T06:25:56;98769.75;;;-3.13;100.00
32083;BME280;18597;48.328;7.932;2023-01-19T06:28:22;98773.19;;;-3.13;100.00
32083;BME280;18597;48.328;7.932;2023-01-19T06:30:50;98769.22;;;-3.01;100.00
32083;BME280;18597;48.328;7.932;2023-01-19T06:33:17;98776.56;;;-2.90;100.00
32083;BME280;18597;48.328;7.932;2023-01-19T06:35:44;98781.03;;;-2.92;100.00
32083;BME280;18597;48.328;7.932;2023-01-19T06:38:11;98774.88;;;-2.91;100.00
32083;BME280;18597;48.328;7.932;2023-01-19T06:40:39;98771.91;;;-2.65;100.00
32083;BME280;18597;48.328;7.932;2023-01-19T06:43:06;98769.38;;;-2.66;100.00
32083;BME280;18597;48.328;7.932;2023-01-19T06:45:33;98767.59;;;-2.66;100.00
32083;BME280;18597;48.328;7.932;2023-01-19T06:47:59;98767.00;;;-2.33;100.00
32083;BME280;18597;48.328;7.932;2023-01-19T06:50:25;98769.59;;;-2.33;100.00
32083;BME280;18597;48.328;7.932;2023-01-19T06:52:51;98762.94;;;-2.21;100.00
32083;BME280;18597;48.328;7.932;2023-01-19T06:55:17;98768.69;;;-2.32;100.00
32083;BME280;18597;48.328;7.932;2023-01-19T06:57:43;98771.84;;;-2.44;100.00
32083;BME280;18597;48.328;7.932;2023-01-19T07:00:11;98775.56;;;-2.48;100.00
32083;BME280;18597;48.328;7.932;2023-01-19T07:02:41;98779.59;;;-2.41;100.00
32083;BME280;18597;48.328;7.932;2023-01-19T07:05:09;98775.31;;;-2.44;100.00
32083;BME280;18597;48.328;7.932;2023-01-19T07:07:36;98774.75;;;-2.32;100.00
32083;BME280;18597;48.328;7.932;2023-01-19T07:10:06;98780.28;;;-2.38;100.00
32083;BME280;18597;48.328;7.932;2023-01-19T07:12:33;98779.00;;;-2.29;100.00
32083;BME280;18597;48.328;7.932;2023-01-19T07:14:59;98779.28;;;-2.16;100.00
32083;BME280;18597;48.328;7.932;2023-01-19T07:17:25;98779.75;;;-2.08;100.00
32083;BME280;18597;48.328;7.932;2023-01-19T07:19:51;98781.72;;;-2.13;100.00
32083;BME280;18597;48.328;7.932;2023-01-19T07:22:17;98786.47;;;-2.21;100.00
32083;BME280;18597;48.328;7.932;2023-01-19T07:24:43;98779.97;;;-2.13;100.00
32083;BME280;18597;48.328;7.932;2023-01-19T07:27:09;98785.16;;;-1.94;100.00
32083;BME280;18597;48.328;7.932;2023-01-19T07:29:36;98785.84;;;-1.54;100.00
32083;BME280;18597;48.328;7.932;2023-01-19T07:32:03;98784.53;;;-1.63;100.00
32083;BME280;18597;48.328;7.932;2023-01-19T07:34:28;98793.53;;;-1.69;100.00
32083;BME280;18597;48.328;7.932;2023-01-19T07:36:55;98789.84;;;-1.64;100.00
32083;BME280;18597;48.328;7.932;2023-01-19T07:39:21;98787.22;;;-1.64;100.00
32083;BME280;18597;48.328;7.932;2023-01-19T07:41:47;98795.75;;;-1.61;100.00
32083;BME280;18597;48.328;7.932;2023-01-19T07:44:14;98789.94;;;-1.66;100.00
32083;BME280;18597;48.328;7.932;2023-01-19T07:46:40;98797.91;;;-1.52;100.00
32083;BME280;18597;48.328;7.932;2023-01-19T07:49:06;98792.47;;;-1.47;100.00
32083;BME280;18597;48.328;7.932;2023-01-19T07:51:32;98796.00;;;-1.48;100.00
32083;BME280;18597;48.328;7.932;2023-01-19T07:53:58;98803.50;;;-1.41;100.00
32083;BME280;18597;48.328;7.932;2023-01-19T07:56:24;98810.75;;;-1.28;100.00
32083;BME280;18597;48.328;7.932;2023-01-19T07:58:52;98814.81;;;-1.23;100.00
32083;BME280;18597;48.328;7.932;2023-01-19T08:01:18;98813.03;;;-1.22;100.00
32083;BME280;18597;48.328;7.932;2023-01-19T08:03:44;98813.81;;;-1.20;100.00
32083;BME280;18597;48.328;7.932;2023-01-19T08:06:20;98821.28;;;-1.13;100.00
32083;BME280;18597;48.328;7.932;2023-01-19T08:08:46;98814.03;;;-1.07;100.00
32083;BME280;18597;48.328;7.932;2023-01-19T08:11:12;98826.28;;;-0.91;100.00
32083;BME280;18597;48.328;7.932;2023-01-19T08:13:38;98820.66;;;-0.83;100.00
32083;BME280;18597;48.328;7.932;2023-01-19T08:16:04;98815.28;;;-0.64;100.00
32083;BME280;18597;48.328;7.932;2023-01-19T08:18:30;98825.66;;;-0.63;100.00
32083;BME280;18597;48.328;7.932;2023-01-19T08:20:58;98830.59;;;-0.57;100.00
32083;BME280;18597;48.328;7.932;2023-01-19T08:23:25;98820.41;;;-0.45;100.00
32083;BME280;18597;48.328;7.932;2023-01-19T08:25:52;98828.94;;;-0.42;100.00
32083;BME280;18597;48.328;7.932;2023-01-19T08:28:19;98830.81;;;-0.44;100.00
32083;BME280;18597;48.328;7.932;2023-01-19T08:30:45;98837.03;;;-0.46;100.00
32083;BME280;18597;48.328;7.932;2023-01-19T08:33:19;98832.50;;;-0.43;100.00
32083;BME280;18597;48.328;7.932;2023-01-19T08:35:50;98832.19;;;-0.37;100.00
32083;BME280;18597;48.328;7.932;2023-01-19T08:38:16;98835.56;;;-0.35;100.00
32083;BME280;18597;48.328;7.932;2023-01-19T08:40:42;98838.44;;;-0.23;100.00
32083;BME280;18597;48.328;7.932;2023-01-19T08:43:13;98839.47;;;-0.10;100.00
32083;BME280;18597;48.328;7.932;2023-01-19T08:45:43;98834.91;;;-0.07;100.00
32083;BME280;18597;48.328;7.932;2023-01-19T08:48:15;98834.50;;;0.01;100.00
32083;BME280;18597;48.328;7.932;2023-01-19T08:50:41;98838.38;;;0.10;100.00
32083;BME280;18597;48.328;7.932;2023-01-19T08:53:09;98835.75;;;0.10;100.00
32083;BME280;18597;48.328;7.932;2023-01-19T08:55:35;98845.00;;;0.17;100.00
32083;BME280;18597;48.328;7.932;2023-01-19T08:58:02;98851.59;;;0.24;100.00
32083;BME280;18597;48.328;7.932;2023-01-19T09:00:30;98842.44;;;0.31;100.00
32083;BME280;18597;48.328;7.932;2023-01-19T09:02:56;98849.06;;;0.38;100.00
32083;BME280;18597;48.328;7.932;2023-01-19T09:05:22;98848.78;;;0.43;100.00
32083;BME280;18597;48.328;7.932;2023-01-19T09:07:49;98846.41;;;0.54;100.00
32083;BME280;18597;48.328;7.932;2023-01-19T09:10:17;98853.31;;;0.71;100.00
32083;BME280;18597;48.328;7.932;2023-01-19T09:12:44;98849.09;;;0.82;100.00
32083;BME280;18597;48.328;7.932;2023-01-19T09:15:11;98853.25;;;0.87;100.00
32083;BME280;18597;48.328;7.932;2023-01-19T09:17:39;98853.06;;;0.90;100.00
32083;BME280;18597;48.328;7.932;2023-01-19T09:20:07;98854.41;;;0.97;100.00
32083;BME280;18597;48.328;7.932;2023-01-19T09:22:33;98851.41;;;1.03;100.00
32083;BME280;18597;48.328;7.932;2023-01-19T09:24:59;98858.50;;;1.17;100.00
32083;BME280;18597;48.328;7.932;2023-01-19T09:27:25;98857.84;;;1.27;100.00
32083;BME280;18597;48.328;7.932;2023-01-19T09:29:51;98860.22;;;1.32;100.00
32083;BME280;18597;48.328;7.932;2023-01-19T09:32:19;98860.94;;;1.20;100.00
32083;BME280;18597;48.328;7.932;2023-01-19T09:34:45;98857.50;;;1.33;100.00
32083;BME280;18597;48.328;7.932;2023-01-19T09:37:12;98863.34;;;1.38;100.00
32083;BME280;18597;48.328;7.932;2023-01-19T09:39:37;98868.03;;;1.48;100.00
32083;BME280;18597;48.328;7.932;2023-01-19T09:42:19;98862.97;;;1.45;100.00
32083;BME280;18597;48.328;7.932;2023-01-19T09:44:49;98871.25;;;1.53;100.00
32083;BME280;18597;48.328;7.932;2023-01-19T09:47:23;98865.97;;;1.53;100.00
32083;BME280;18597;48.328;7.932;2023-01-19T09:50:05;98860.03;;;1.63;100.00
32083;BME280;18597;48.328;7.932;2023-01-19T09:52:36;98853.47;;;1.71;100.00
32083;BME280;18597;48.328;7.932;2023-01-19T09:55:29;98859.78;;;1.82;100.00
32083;BME280;18597;48.328;7.932;2023-01-19T09:57:55;98862.78;;;1.90;100.00
32083;BME280;18597;48.328;7.932;2023-01-19T10:00:21;98862.41;;;1.97;100.00
32083;BME280;18597;48.328;7.932;2023-01-19T10:02:56;98865.94;;;2.10;100.00
32083;BME280;18597;48.328;7.932;2023-01-19T10:05:47;98868.91;;;2.32;100.00
32083;BME280;18597;48.328;7.932;2023-01-19T10:08:48;98857.38;;;2.47;100.00
32083;BME280;18597;48.328;7.932;2023-01-19T10:11:31;98861.31;;;2.55;100.00
32083;BME280;18597;48.328;7.932;2023-01-19T10:13:59;98858.03;;;2.51;100.00
32083;BME280;18597;48.328;7.932;2023-01-19T10:16:42;98863.34;;;2.64;100.00
32083;BME280;18597;48.328;7.932;2023-01-19T10:19:23;98863.66;;;2.99;100.00
32083;BME280;18597;48.328;7.932;2023-01-19T10:21:50;98861.06;;;3.12;100.00
32083;BME280;18597;48.328;7.932;2023-01-19T10:24:36;98865.16;;;3.16;100.00
32083;BME280;18597;48.328;7.932;2023-01-19T10:27:14;98863.91;;;3.21;100.00
32083;BME280;18597;48.328;7.932;2023-01-19T10:29:40;98864.22;;;3.29;100.00
32083;BME280;18597;48.328;7.932;2023-01-19T10:32:16;98866.34;;;3.37;100.00
32083;BME280;18597;48.328;7.932;2023-01-19T10:34:44;98865.19;;;3.41;100.00
32083;BME280;18597;48.328;7.932;2023-01-19T10:39:57;98865.66;;;4.10;100.00
32083;BME280;18597;48.328;7.932;2023-01-19T10:42:29;98848.19;;;4.20;100.00
32083;BME280;18597;48.328;7.932;2023-01-19T10:44:55;98852.03;;;4.40;100.00
32083;BME280;18597;48.328;7.932;2023-01-19T10:47:29;98855.94;;;4.47;100.00
32083;BME280;18597;48.328;7.932;2023-01-19T10:49:57;98848.09;;;4.45;100.00
32083;BME280;18597;48.328;7.932;2023-01-19T10:54:59;98852.09;;;4.75;100.00
32083;BME280;18597;48.328;7.932;2023-01-19T10:57:32;98848.97;;;5.05;98.27
32083;BME280;18597;48.328;7.932;2023-01-19T11:00:02;98856.16;;;5.38;89.55
32083;BME280;18597;48.328;7.932;2023-01-19T11:02:30;98847.75;;;5.67;93.33
32083;BME280;18597;48.328;7.932;2023-01-19T11:05:00;98853.66;;;5.48;84.44
32083;BME280;18597;48.328;7.932;2023-01-19T11:07:32;98855.75;;;5.20;93.37
32083;BME280;18597;48.328;7.932;2023-01-19T11:10:20;98853.66;;;5.13;85.97
32083;BME280;18597;48.328;7.932;2023-01-19T11:13:10;98849.84;;;5.17;89.80
32083;BME280;18597;48.328;7.932;2023-01-19T11:16:04;98851.34;;;4.97;87.89
32083;BME280;18597;48.328;7.932;2023-01-19T11:18:35;98849.44;;;4.75;82.88
32083;BME280;18597;48.328;7.932;2023-01-19T11:21:09;98847.66;;;4.52;84.52
32083;BME280;18597;48.328;7.932;2023-01-19T11:23:49;98850.16;;;4.53;83.17
32083;BME280;18597;48.328;7.932;2023-01-19T11:28:57;98836.34;;;4.26;85.97
32083;BME280;18597;48.328;7.932;2023-01-19T11:34:13;98840.94;;;3.98;87.03
32083;BME280;18597;48.328;7.932;2023-01-19T11:36:59;98837.63;;;4.07;88.17
32083;BME280;18597;48.328;7.932;2023-01-19T11:39:28;98838.44;;;4.21;87.15
32083;BME280;18597;48.328;7.932;2023-01-19T11:42:02;98838.41;;;4.33;82.82
32083;BME280;18597;48.328;7.932;2023-01-19T11:44:34;98838.94;;;4.38;82.31
32083;BME280;18597;48.328;7.932;2023-01-19T11:47:09;98833.09;;;4.70;81.00
32083;BME280;18597;48.328;7.932;2023-01-19T11:50:14;98837.72;;;4.90;76.70
32083;BME280;18597;48.328;7.932;2023-01-19T11:53:24;98824.88;;;4.97;77.21
32083;BME280;18597;48.328;7.932;2023-01-19T11:58:17;98826.13;;;5.15;78.14
32083;BME280;18597;48.328;7.932;2023-01-19T12:00:51;98818.66;;;5.09;77.18
32083;BME280;18597;48.328;7.932;2023-01-19T12:03:28;98814.22;;;5.10;78.76
32083;BME280;18597;48.328;7.932;2023-01-19T12:06:02;98817.09;;;5.07;77.70
32083;BME280;18597;48.328;7.932;2023-01-19T12:08:41;98815.25;;;4.96;79.40
32083;BME280;18597;48.328;7.932;2023-01-19T12:11:15;98816.97;;;4.73;78.95
32083;BME280;18597;48.328;7.932;2023-01-19T12:13:44;98816.44;;;4.57;78.80
32083;BME280;18597;48.328;7.932;2023-01-19T12:16:20;98813.94;;;4.42;80.19
32083;BME280;18597;48.328;7.932;2023-01-19T12:18:55;98808.75;;;4.17;81.33
32083;BME280;18597;48.328;7.932;2023-01-19T12:21:23;98810.56;;;4.16;85.33
32083;BME280;18597;48.328;7.932;2023-01-19T12:24:13;98807.16;;;4.14;87.60
32083;BME280;18597;48.328;7.932;2023-01-19T12:26:57;98811.63;;;4.14;88.44
32083;BME280;18597;48.328;7.932;2023-01-19T12:29:28;98802.97;;;4.12;88.78
32083;BME280;18597;48.328;7.932;2023-01-19T12:32:16;98803.75;;;4.01;84.15
32083;BME280;18597;48.328;7.932;2023-01-19T12:34:45;98807.38;;;3.75;87.85
32083;BME280;18597;48.328;7.932;2023-01-19T12:40:25;98799.69;;;3.46;90.41
32083;BME280;18597;48.328;7.932;2023-01-19T12:42:59;98799.19;;;3.28;93.43
32083;BME280;18597;48.328;7.932;2023-01-19T12:45:35;98807.84;;;3.30;97.54
32083;BME280;18597;48.328;7.932;2023-01-19T12:48:02;98805.94;;;3.20;97.75
32083;BME280;18597;48.328;7.932;2023-01-19T12:50:34;98800.56;;;3.34;98.79
32083;BME280;18597;48.328;7.932;2023-01-19T12:53:03;98800.66;;;3.45;100.00
32083;BME280;18597;48.328;7.932;2023-01-19T12:55:37;98800.31;;;3.75;98.96
32083;BME280;18597;48.328;7.932;2023-01-19T12:58:13;98799.59;;;4.10;95.93
32083;BME280;18597;48.328;7.932;2023-01-19T13:00:44;98814.06;;;4.41;91.44
32083;BME280;18597;48.328;7.932;2023-01-19T13:05:55;98797.22;;;4.42;85.01
32083;BME280;18597;48.328;7.932;2023-01-19T13:08:27;98795.94;;;4.48;86.88
32083;BME280;18597;48.328;7.932;2023-01-19T13:13:41;98803.44;;;3.93;91.54
32083;BME280;18597;48.328;7.932;2023-01-19T13:21:46;98811.28;;;3.82;92.54
32083;BME280;18597;48.328;7.932;2023-01-19T13:24:16;98804.97;;;3.72;94.32
32083;BME280;18597;48.328;7.932;2023-01-19T13:26:54;98801.88;;;3.78;92.01
32083;BME280;18597;48.328;7.932;2023-01-19T13:29:40;98802.19;;;3.86;93.67
32083;BME280;18597;48.328;7.932;2023-01-19T13:32:17;98807.69;;;3.83;90.83
32083;BME280;18597;48.328;7.932;2023-01-19T13:34:49;98799.69;;;3.72;92.77
32083;BME280;18597;48.328;7.932;2023-01-19T13:37:20;98808.09;;;3.77;94.07
32083;BME280;18597;48.328;7.932;2023-01-19T13:39:50;98800.06;;;3.91;92.46
32083;BME280;18597;48.328;7.932;2023-01-19T13:42:37;98805.13;;;3.94;94.24
32083;BME280;18597;48.328;7.932;2023-01-19T13:45:31;98803.06;;;4.10;91.70
32083;BME280;18597;48.328;7.932;2023-01-19T13:48:01;98815.19;;;4.26;93.95
32083;BME280;18597;48.328;7.932;2023-01-19T13:50:33;98803.69;;;4.38;94.36
32083;BME280;18597;48.328;7.932;2023-01-19T13:53:00;98803.94;;;4.35;94.23